createdAt,value
2019-03-19T00:01:21.846Z,6.13
2019-03-19T00:03:52.288Z,7.37
2019-03-19T00:06:22.510Z,7.20
2019-03-19T00:08:52.828Z,6.83
2019-03-19T00:11:23.476Z,6.73
2019-03-19T00:13:53.579Z,6.97
2019-03-19T00:16:25.147Z,6.40
2019-03-19T00:18:56.998Z,5.80
2019-03-19T00:21:27.955Z,5.83
2019-03-19T00:23:59.149Z,6.33
2019-03-19T00:26:29.913Z,6.10
2019-03-19T00:29:00.440Z,5.40
2019-03-19T00:31:31.487Z,5.27
2019-03-19T00:34:01.906Z,6.17
2019-03-19T00:36:31.709Z,6.20
2019-03-19T00:39:01.831Z,5.77
2019-03-19T00:41:34.529Z,5.83
2019-03-19T00:44:04.727Z,6.13
2019-03-19T00:46:34.737Z,6.63
2019-03-19T00:49:06.745Z,7.47
2019-03-19T00:51:37.258Z,5.77
2019-03-19T00:54:06.836Z,6.43
2019-03-19T00:56:36.850Z,5.20
2019-03-19T00:59:07.121Z,5.50
2019-03-19T01:01:38.862Z,5.17
2019-03-19T01:04:09.360Z,4.83
2019-03-19T01:06:39.382Z,4.80
2019-03-19T01:09:09.819Z,7.30
2019-03-19T01:11:41.468Z,7.40
2019-03-19T01:14:11.908Z,7.30
2019-03-19T01:16:42.000Z,7.47
2019-03-19T01:19:12.863Z,7.47
2019-03-19T01:21:42.649Z,6.17
2019-03-19T01:24:12.374Z,7.17
2019-03-19T01:26:42.172Z,6.00
2019-03-19T01:29:12.299Z,6.07
2019-03-19T01:31:42.589Z,5.37
2019-03-19T01:34:12.733Z,5.30
2019-03-19T01:36:43.370Z,5.03
2019-03-19T01:39:13.582Z,4.17
2019-03-19T01:41:43.673Z,4.70
2019-03-19T01:44:13.938Z,4.60
2019-03-19T01:46:44.090Z,3.80
2019-03-19T01:49:14.293Z,4.90
2019-03-19T01:51:44.485Z,3.93
2019-03-19T01:54:14.708Z,3.73
2019-03-19T01:56:45.143Z,4.50
2019-03-19T01:59:15.893Z,4.27
2019-03-19T02:01:46.928Z,4.03
2019-03-19T02:04:17.758Z,4.90
2019-03-19T02:06:48.907Z,3.40
2019-03-19T02:09:19.944Z,3.47
2019-03-19T02:11:50.771Z,4.70
2019-03-19T02:14:20.985Z,4.03
2019-03-19T02:16:51.513Z,4.47
2019-03-19T02:19:21.529Z,3.73
2019-03-19T02:21:51.577Z,3.73
2019-03-19T02:24:21.354Z,3.83
2019-03-19T02:26:51.174Z,3.40
2019-03-19T02:29:20.988Z,4.37
2019-03-19T02:31:51.839Z,4.07
2019-03-19T02:34:21.538Z,3.87
2019-03-19T02:36:51.875Z,3.20
2019-03-19T02:39:21.779Z,3.67
2019-03-19T02:41:51.780Z,4.40
2019-03-19T02:44:21.487Z,3.87
2019-03-19T02:46:51.943Z,4.23
2019-03-19T02:49:22.156Z,4.20
2019-03-19T02:51:52.253Z,4.80
2019-03-19T02:54:22.487Z,4.07
2019-03-19T02:56:52.618Z,4.30
2019-03-19T02:59:22.508Z,4.13
2019-03-19T03:01:52.522Z,3.70
2019-03-19T03:04:23.079Z,5.07
2019-03-19T03:06:52.771Z,4.53
2019-03-19T03:09:32.934Z,5.13
2019-03-19T03:12:03.351Z,5.07
2019-03-19T03:14:34.094Z,5.77
2019-03-19T03:17:04.708Z,5.00
2019-03-19T03:19:35.037Z,4.20
2019-03-19T03:22:04.840Z,4.77
2019-03-19T03:24:35.078Z,4.40
2019-03-19T03:27:05.507Z,4.13
2019-03-19T03:29:35.712Z,4.27
2019-03-19T03:32:05.727Z,4.63
2019-03-19T03:34:36.080Z,4.00
2019-03-19T03:37:06.067Z,4.00
2019-03-19T03:39:35.887Z,4.40
2019-03-19T03:42:06.129Z,3.80
2019-03-19T03:44:36.335Z,4.70
2019-03-19T03:47:06.350Z,4.13
2019-03-19T03:49:36.562Z,3.80
2019-03-19T03:52:06.474Z,4.00
2019-03-19T03:54:36.405Z,3.53
2019-03-19T03:57:06.528Z,4.53
2019-03-19T03:59:36.837Z,4.30
2019-03-19T04:02:07.279Z,4.40
2019-03-19T04:04:37.586Z,4.17
2019-03-19T04:07:07.616Z,4.17
2019-03-19T04:09:39.037Z,4.53
2019-03-19T04:12:10.499Z,4.80
2019-03-19T04:21:17.145Z,3.60
2019-03-19T04:23:46.818Z,3.80
2019-03-19T04:26:16.937Z,4.40
2019-03-19T04:28:51.367Z,5.63
2019-03-19T04:31:21.789Z,4.37
2019-03-19T04:33:51.918Z,3.97
2019-03-19T04:36:22.959Z,3.23
2019-03-19T04:38:53.387Z,4.20
2019-03-19T04:41:23.804Z,4.80
2019-03-19T04:43:54.132Z,4.33
2019-03-19T04:46:32.024Z,4.13
2019-03-19T04:49:02.759Z,5.73
2019-03-19T04:51:37.071Z,5.63
2019-03-19T05:20:43.518Z,6.10
2019-03-19T05:23:13.843Z,6.43
2019-03-19T05:25:46.826Z,6.67
2019-03-19T05:28:17.963Z,6.03
2019-03-19T05:30:50.751Z,6.63
2019-03-19T05:33:21.064Z,4.77
2019-03-19T05:35:52.824Z,5.27
2019-03-19T05:38:22.739Z,6.83
2019-03-19T05:40:53.061Z,5.47
2019-03-19T05:43:23.175Z,5.53
2019-03-19T05:45:53.096Z,6.17
2019-03-19T05:48:26.898Z,4.70
2019-03-19T05:50:57.525Z,5.07
2019-03-19T05:54:03.157Z,4.80
2019-03-19T05:56:43.543Z,5.60
2019-03-19T05:59:13.765Z,5.47
2019-03-19T06:01:47.986Z,5.73
2019-03-19T06:04:24.096Z,5.07
2019-03-19T06:10:20.187Z,5.70
2019-03-19T06:12:51.763Z,5.60
2019-03-19T06:15:22.270Z,5.97
2019-03-19T06:17:53.151Z,6.57
2019-03-19T06:20:25.885Z,7.30
2019-03-19T06:22:56.422Z,7.07
2019-03-19T06:25:27.164Z,6.57
2019-03-19T06:28:01.038Z,7.03
2019-03-19T06:30:43.466Z,8.33
2019-03-19T06:33:29.464Z,6.97
2019-03-19T06:36:20.145Z,8.30
2019-03-19T06:45:25.854Z,7.53
2019-03-19T06:49:35.524Z,7.93
2019-03-19T06:50:44.469Z,9.33
2019-03-19T06:53:10.642Z,7.77
2019-03-19T06:55:56.336Z,7.53
2019-03-19T07:17:03.864Z,7.37
2019-03-19T07:31:44.786Z,6.17
2019-03-19T08:10:07.465Z,6.40
2019-03-19T08:12:08.704Z,5.20
2019-03-19T08:14:42.014Z,4.93
2019-03-19T08:17:12.523Z,10.83
2019-03-19T08:19:43.796Z,6.53
2019-03-19T08:22:14.504Z,4.30
2019-03-19T08:24:44.834Z,5.07
2019-03-19T08:27:15.355Z,6.90
2019-03-19T08:29:45.485Z,4.30
2019-03-19T08:32:15.904Z,4.50
2019-03-19T08:34:46.437Z,3.40
2019-03-19T08:37:16.444Z,3.60
2019-03-19T08:39:46.465Z,5.07
2019-03-19T08:42:17.510Z,3.73
2019-03-19T08:44:48.647Z,4.03
2019-03-19T08:47:18.765Z,3.63
2019-03-19T08:49:51.558Z,4.03
2019-03-19T08:52:22.721Z,4.63
2019-03-19T08:54:53.849Z,4.33
2019-03-19T08:57:25.001Z,3.83
2019-03-19T08:59:58.520Z,2.33
2019-03-19T09:03:22.409Z,2.07
2019-03-19T09:05:59.961Z,2.60
2019-03-19T09:08:30.913Z,2.20
2019-03-19T09:21:16.849Z,2.77
2019-03-19T09:29:52.170Z,2.00
2019-03-19T09:39:16.249Z,2.63
2019-03-19T09:41:51.089Z,2.83
2019-03-19T09:44:30.563Z,2.23
2019-03-19T09:47:06.474Z,2.90
2019-03-19T09:49:37.533Z,3.00
2019-03-19T09:52:07.840Z,2.90
2019-03-19T09:54:43.802Z,3.17
2019-03-19T09:57:18.442Z,3.00
2019-03-19T09:59:54.681Z,3.00
2019-03-19T10:02:28.650Z,3.53
2019-03-19T10:04:58.930Z,2.50
2019-03-19T10:07:29.854Z,3.50
2019-03-19T10:10:00.139Z,3.00
2019-03-19T10:12:36.044Z,3.30
2019-03-19T10:18:33.721Z,4.63
2019-03-19T10:21:04.561Z,3.30
2019-03-19T10:23:34.977Z,3.27
2019-03-19T10:26:08.481Z,3.20
2019-03-19T10:28:38.289Z,4.17
2019-03-19T10:31:12.689Z,3.07
2019-03-19T10:33:45.284Z,3.30
2019-03-19T10:36:21.137Z,3.53
2019-03-19T10:38:52.265Z,3.43
2019-03-19T10:41:24.681Z,3.67
2019-03-19T10:44:32.849Z,3.90
2019-03-19T10:47:03.689Z,2.80
2019-03-19T10:49:40.369Z,2.50
2019-03-19T10:52:12.249Z,2.33
2019-03-19T10:54:46.881Z,3.73
2019-03-19T10:57:17.891Z,2.23
2019-03-19T10:59:50.692Z,2.77
2019-03-19T11:02:21.441Z,2.83
2019-03-19T11:04:52.161Z,2.70
2019-03-19T11:10:19.001Z,4.23
2019-03-19T11:12:56.129Z,3.10
2019-03-19T11:15:26.808Z,2.53
2019-03-19T11:17:57.881Z,3.10
2019-03-19T11:20:30.041Z,3.83
2019-03-19T11:23:00.441Z,3.83
2019-03-19T11:35:38.929Z,3.93
2019-03-19T11:38:19.489Z,4.30
2019-03-19T11:40:54.121Z,3.20
2019-03-19T11:43:25.250Z,3.87
2019-03-19T11:46:40.356Z,2.90
2019-03-19T11:49:38.322Z,2.80
2019-03-19T11:52:13.081Z,3.33
2019-03-19T11:58:15.160Z,3.30
2019-03-19T12:01:28.180Z,4.37
2019-03-19T12:13:28.161Z,3.30
2019-03-19T12:16:52.442Z,4.53
2019-03-19T12:53:58.681Z,6.80
2019-03-19T12:59:36.936Z,4.67
2019-03-19T13:02:49.969Z,4.80
2019-03-19T13:05:36.759Z,4.07
2019-03-19T13:08:09.321Z,3.93
2019-03-19T13:11:06.808Z,4.20
2019-03-19T13:17:04.984Z,3.60
2019-03-19T13:20:16.778Z,3.90
2019-03-19T13:23:13.423Z,4.70
2019-03-19T13:29:33.135Z,4.57
2019-03-19T13:32:28.289Z,3.97
2019-03-19T13:34:58.968Z,4.20
2019-03-19T13:37:37.489Z,3.37
2019-03-19T13:40:11.812Z,5.30
2019-03-19T13:42:55.384Z,2.70
2019-03-19T13:45:54.545Z,3.40
2019-03-19T13:48:27.528Z,2.93
2019-03-19T13:51:07.488Z,3.53
2019-03-19T13:53:41.984Z,3.10
2019-03-19T13:56:51.447Z,3.00
2019-03-19T13:59:23.104Z,4.30
2019-03-19T14:01:57.087Z,6.13
2019-03-19T14:04:35.528Z,5.23
2019-03-19T14:07:25.248Z,4.43
2019-03-19T14:10:26.970Z,2.90
2019-03-19T14:12:57.464Z,4.30
2019-03-19T14:15:34.970Z,3.23
2019-03-19T14:18:05.928Z,3.20
2019-03-19T14:20:46.056Z,4.87
2019-03-19T14:23:32.576Z,5.63
2019-03-19T14:26:09.848Z,5.43
2019-03-19T14:28:40.811Z,9.97
2019-03-19T14:31:11.741Z,4.37
2019-03-19T14:33:42.687Z,5.27
2019-03-19T14:36:14.938Z,9.47
2019-03-19T14:38:47.471Z,2.83
2019-03-19T14:41:18.944Z,2.77
2019-03-19T14:43:50.528Z,3.03
2019-03-19T14:46:21.768Z,3.37
2019-03-19T14:48:53.129Z,3.17
2019-03-19T14:51:31.448Z,2.83
2019-03-19T14:54:01.888Z,9.63
2019-03-19T14:56:32.888Z,4.13
2019-03-19T14:59:12.977Z,4.20
2019-03-19T15:01:49.528Z,8.27
2019-03-19T15:04:19.928Z,5.90
2019-03-19T15:09:50.062Z,6.67
2019-03-19T15:12:20.702Z,6.40
2019-03-19T15:14:50.934Z,6.03
2019-03-19T15:17:21.662Z,6.37
2019-03-19T15:19:52.304Z,6.27
2019-03-19T15:22:32.146Z,8.83
2019-03-19T15:24:55.915Z,9.27
2019-03-19T15:27:26.758Z,6.50
2019-03-19T15:29:57.800Z,3.80
2019-03-19T15:32:28.525Z,4.07
2019-03-19T15:34:59.039Z,4.13
2019-03-19T15:40:33.916Z,5.50
2019-03-19T15:43:04.961Z,6.33
2019-03-19T15:45:35.877Z,7.03
2019-03-19T15:48:06.485Z,5.20
2019-03-19T15:50:40.917Z,4.37
2019-03-19T15:53:11.566Z,4.07
2019-03-19T15:55:42.406Z,5.27
2019-03-19T15:58:13.030Z,5.90
2019-03-19T16:00:48.153Z,6.27
2019-03-19T16:03:15.937Z,7.07
2019-03-19T16:05:51.455Z,8.97
2019-03-19T16:08:22.500Z,8.67
2019-03-19T16:10:53.532Z,10.83
2019-03-19T16:13:24.725Z,12.90
2019-03-19T16:15:55.943Z,14.47
2019-03-19T16:18:26.891Z,13.03
2019-03-19T16:20:57.417Z,12.90
2019-03-19T16:23:28.349Z,21.40
2019-03-19T16:25:59.585Z,24.17
2019-03-19T16:28:29.906Z,16.10
2019-03-19T16:30:59.936Z,15.50
2019-03-19T16:33:30.344Z,12.27
2019-03-19T16:36:00.984Z,15.27
2019-03-19T16:38:33.598Z,12.50
2019-03-19T16:41:08.991Z,13.00
2019-03-19T16:43:39.858Z,12.47
2019-03-19T16:46:11.890Z,12.23
2019-03-19T16:48:46.850Z,11.90
2019-03-19T16:51:42.664Z,12.93
2019-03-19T16:54:41.048Z,11.87
2019-03-19T16:57:14.176Z,14.30
2019-03-19T17:00:16.830Z,13.73
2019-03-19T17:03:39.674Z,17.20
2019-03-19T17:06:14.082Z,15.80
2019-03-19T17:08:45.938Z,17.73
2019-03-19T17:11:22.130Z,16.60
2019-03-19T17:13:56.194Z,23.50
2019-03-19T17:16:28.986Z,28.33
2019-03-19T17:19:00.538Z,25.20
2019-03-19T17:21:35.795Z,30.67
2019-03-19T17:24:11.202Z,23.20
2019-03-19T17:26:51.434Z,23.87
2019-03-19T17:29:48.642Z,28.90
2019-03-19T17:46:53.994Z,21.03
2019-03-19T17:49:36.803Z,19.03
2019-03-19T17:52:09.564Z,17.67
2019-03-19T17:54:44.002Z,17.87
2019-03-19T17:57:16.162Z,19.03
2019-03-19T17:59:50.677Z,19.30
2019-03-19T18:02:24.232Z,18.60
2019-03-19T18:04:53.797Z,16.23
2019-03-19T18:07:25.138Z,17.53
2019-03-19T18:09:57.902Z,23.90
2019-03-19T18:12:31.818Z,25.70
2019-03-19T18:15:08.138Z,26.83
2019-03-19T18:17:38.420Z,25.23
2019-03-19T18:20:10.993Z,24.77
2019-03-19T18:22:42.742Z,25.83
2019-03-19T18:25:17.272Z,23.63
2019-03-19T18:27:47.582Z,22.73
2019-03-19T18:30:20.761Z,22.27
2019-03-19T18:32:53.134Z,23.30
2019-03-19T18:35:26.925Z,19.93
2019-03-19T18:38:01.570Z,22.73
2019-03-19T18:40:38.756Z,26.93
2019-03-19T18:43:15.543Z,27.83
2019-03-19T18:45:48.942Z,33.97
2019-03-19T18:48:22.743Z,36.73
2019-03-19T18:50:58.475Z,33.60
2019-03-19T18:53:34.534Z,39.10
2019-03-19T18:56:09.157Z,38.70
2019-03-19T18:58:40.029Z,36.50
2019-03-19T19:01:12.266Z,33.73
2019-03-19T19:03:43.727Z,31.97
2019-03-19T19:06:16.846Z,36.03
2019-03-19T19:08:53.063Z,35.40
2019-03-19T19:11:25.256Z,33.87
2019-03-19T19:13:57.115Z,36.40
2019-03-19T19:16:29.997Z,36.47
2019-03-19T19:19:05.737Z,37.73
2019-03-19T19:21:39.019Z,37.20
2019-03-19T19:24:10.389Z,37.57
2019-03-19T19:26:44.594Z,36.23
2019-03-19T19:29:22.709Z,42.53
2019-03-19T19:31:56.157Z,42.23
2019-03-19T19:34:31.839Z,53.67
2019-03-19T19:37:12.710Z,56.70
2019-03-19T19:39:49.488Z,64.60
2019-03-19T19:42:20.208Z,70.03
2019-03-19T19:44:50.849Z,71.40
2019-03-19T19:47:21.377Z,84.50
2019-03-19T19:50:11.787Z,82.23
2019-03-19T19:52:44.972Z,87.63
2019-03-19T19:55:20.124Z,76.40
2019-03-19T19:57:51.543Z,71.90
2019-03-19T20:00:25.139Z,69.73
2019-03-19T20:02:55.799Z,67.53
2019-03-19T20:05:30.423Z,74.37
2019-03-19T20:08:00.939Z,71.73
2019-03-19T20:10:31.459Z,72.00
2019-03-19T20:13:16.027Z,77.67
2019-03-19T20:15:47.148Z,76.73
2019-03-19T20:18:36.116Z,68.57
2019-03-19T20:21:06.856Z,69.43
2019-03-19T20:23:38.828Z,70.13
2019-03-19T20:26:11.798Z,72.73
2019-03-19T20:28:42.959Z,65.57
2019-03-19T20:31:17.479Z,66.70
2019-03-19T20:33:54.038Z,74.73
2019-03-19T20:36:32.880Z,69.03
2019-03-19T20:39:15.378Z,71.37
2019-03-19T20:41:45.956Z,70.60
2019-03-19T20:44:23.506Z,70.27
2019-03-19T20:46:56.086Z,73.60
2019-03-19T20:49:27.826Z,72.47
2019-03-19T20:52:01.526Z,78.70
2019-03-19T20:54:31.858Z,78.57
2019-03-19T20:57:04.025Z,77.47
2019-03-19T20:59:37.847Z,77.30
2019-03-19T21:02:11.736Z,71.83
2019-03-19T21:04:45.346Z,69.50
2019-03-19T21:07:16.676Z,71.23
2019-03-19T21:09:47.326Z,74.20
2019-03-19T21:12:18.877Z,77.80
2019-03-19T21:14:49.510Z,78.33
2019-03-19T21:17:20.851Z,75.43
2019-03-19T21:19:51.285Z,73.90
2019-03-19T21:22:21.179Z,68.30
2019-03-19T21:24:51.816Z,70.47
2019-03-19T21:27:21.825Z,67.47
2019-03-19T21:29:53.084Z,64.30
2019-03-19T21:32:23.131Z,63.47
2019-03-19T21:34:53.517Z,67.77
2019-03-19T21:37:23.632Z,63.10
2019-03-19T21:39:53.751Z,66.67
2019-03-19T21:42:24.138Z,66.83
2019-03-19T21:44:54.502Z,60.87
2019-03-19T21:47:25.657Z,56.10
2019-03-19T21:49:55.888Z,55.20
2019-03-19T21:52:26.085Z,54.50
2019-03-19T21:54:56.517Z,56.07
2019-03-19T21:57:27.462Z,50.00
2019-03-19T21:59:57.896Z,59.23
2019-03-19T22:02:27.908Z,62.03
2019-03-19T22:04:58.135Z,57.83
2019-03-19T22:07:28.139Z,63.50
2019-03-19T22:09:58.558Z,63.07
2019-03-19T22:12:28.489Z,62.00
2019-03-19T22:14:58.922Z,57.90
2019-03-19T22:17:28.918Z,55.00
2019-03-19T22:19:59.140Z,50.77
2019-03-19T22:22:29.368Z,50.47
2019-03-19T22:24:59.583Z,44.60
2019-03-19T22:27:29.802Z,45.67
2019-03-19T22:30:00.396Z,49.67
2019-03-19T22:32:30.656Z,50.30
2019-03-19T22:35:00.564Z,52.93
2019-03-19T22:37:30.809Z,52.40
2019-03-19T22:40:01.127Z,51.00
2019-03-19T22:42:31.644Z,48.17
2019-03-19T22:45:04.317Z,50.90
2019-03-19T22:47:37.648Z,51.87
2019-03-19T22:50:07.760Z,53.63
2019-03-19T22:52:37.878Z,54.20
2019-03-19T22:55:08.067Z,53.53
2019-03-19T22:57:38.132Z,58.80
2019-03-19T23:00:09.855Z,56.47
2019-03-19T23:02:40.384Z,52.47
2019-03-19T23:05:10.698Z,55.53
2019-03-19T23:07:40.506Z,54.07
2019-03-19T23:10:10.726Z,48.83
2019-03-19T23:12:41.377Z,52.93
2019-03-19T23:15:11.909Z,52.67
2019-03-19T23:17:41.909Z,53.77
2019-03-19T23:20:12.557Z,62.50
2019-03-19T23:22:42.966Z,61.47
2019-03-19T23:25:14.125Z,58.77
2019-03-19T23:27:44.527Z,53.50
2019-03-19T23:30:14.559Z,56.03
2019-03-19T23:32:44.463Z,47.37
2019-03-19T23:35:14.380Z,51.37
2019-03-19T23:37:44.811Z,51.43
2019-03-19T23:40:14.826Z,51.87
2019-03-19T23:42:45.251Z,53.90
2019-03-19T23:45:15.259Z,52.77
2019-03-19T23:47:45.397Z,53.67
2019-03-19T23:50:15.805Z,49.97
2019-03-19T23:52:46.145Z,45.83
2019-03-19T23:55:17.393Z,45.60
2019-03-19T23:57:51.924Z,47.43
